Chuuk, Chuuk International Airport (PTKK)

NameChuuk International Airport
CityChuuk
CountryMicronesia
ICAOPTKK
IATATKK
Altitude3 m
CoordinatesGoogle Map
Live Air TrafficLiveATC.net
METARPTKK 110652Z VRB05KT 15SM FEW014 SCT120 BKN280 28/24 A2978 RMK SLP088 T02830237
2018-12-11 06:52:00 Wind: North (0°) 2.57 m/s - Visibility: 24140.1 m - Temperature: 28 °C - Dew point: 24 °C - Humidity: 78.9% - Pressure: 1008.47 hPa
Statistics

The table below shows the detailed information of all flights to/from Chuuk, Chuuk International Airport (PTKK).